Aeroporto :
LOGIN :

Iscrizione | Disclaimer

   EN    FR    IT 

 










Sommario :    VFR   VFR Marginale   IFR   IFR Intensivo   IFR Molto Intensivo
Visibilità : 
Base nubi : 
>= 8 km
>= 3000ft
5 / 8 km
1000 / 3000 ft
1500m / 5 km
500 / 1000 ft
800 / 1500m
200 / 500 ft
< 800m
< 200 ft
Simboli :   Temporali  Nebbia  Neve Forte  Precipitazioni Forti  Vento > 20 kt
SIGMETs :   Varie  Temporali  Ghiacco  Turbolenza  Onda orograficha  Ceneri Vulcaniche







- Altitudine del aeroporto : 296 ft
- Codice IATA : GKE


ETNG - Geilenkirchen

ULTIMO METAR :
  • 101650Z 28009KT 9999 FEW018 SCT050 05/04 Q1023 NOSIG

METARs OBSOLETI :
  • 101550Z 29010KT 9999 -SHRA FEW012 SCT016TCU BKN030 05/04 Q1023 TEMPO -SHRA
  • 101450Z 28009KT 9999 FEW021TCU BKN030 05/04 Q1022 TEMPO -SHRA

TAF TAF ETNG
Valido dal 10 a 18 ore il 11 a 09 ore UTC


101700Z 1018/1109 27010G17KT 9999 SCT018 BKN030
BECMG 1018/1020 27007KT
PROB30
TEMPO 1103/1109 4000 SHRA SCT012CU
Nessun NOTAM noto per questo aeroporto.
1 SIGMET conosciuto per la FIR Langen (EDGG) :
 
Turbolenza severa
EDGG SIGMET 2 VALID 101704/102000 EDZF
EDGG LANGEN FIR SEV TURB FCST APRX 40NM WID LINE BTN N5103 E00555 - N4755 E00906 FL180/240 MOV E NC=



MetMap, La meteo Aeronautica in un colpo d'occhio ! - Copyright ORBIFLY Dicembre 2007 - Disclaimer

ORBIFLY MET'MAP TEAM :

Programmazione e sviluppo : Alexandra Zaïnal
Concezione e sviluppo : Baudouin d'Aumeries
Co-Programmazione e sviluppo : Marc-Olivier Méhu
Supporto tecnico e logistico : Manuel Goepfert
Aiuto per la traduzione : Arnaldo La Scala

Contatto : metmap@orbifly.com




FONTI E CREDITI :

   NOAA